sensor_id;sensor_type;location;lat;lon;timestamp;temperature;humidity
45837;DHT22;31548;51.420;-0.040;2023-10-13T00:00:47;16.60;99.90
45837;DHT22;31548;51.420;-0.040;2023-10-13T00:03:15;16.60;99.90
45837;DHT22;31548;51.420;-0.040;2023-10-13T00:05:43;16.60;99.90
45837;DHT22;31548;51.420;-0.040;2023-10-13T00:08:12;16.60;99.90
45837;DHT22;31548;51.420;-0.040;2023-10-13T00:10:42;16.60;99.90
45837;DHT22;31548;51.420;-0.040;2023-10-13T00:13:10;16.60;99.90
45837;DHT22;31548;51.420;-0.040;2023-10-13T00:15:44;16.60;99.90
45837;DHT22;31548;51.420;-0.040;2023-10-13T00:18:31;16.60;99.90
45837;DHT22;31548;51.420;-0.040;2023-10-13T00:21:02;16.60;99.90
45837;DHT22;31548;51.420;-0.040;2023-10-13T00:24:02;16.60;99.90
45837;DHT22;31548;51.420;-0.040;2023-10-13T00:26:33;16.50;99.90
45837;DHT22;31548;51.420;-0.040;2023-10-13T00:29:04;16.50;99.90
45837;DHT22;31548;51.420;-0.040;2023-10-13T00:31:39;16.50;99.90
45837;DHT22;31548;51.420;-0.040;2023-10-13T00:34:11;16.50;99.90
45837;DHT22;31548;51.420;-0.040;2023-10-13T00:36:42;16.50;99.90
45837;DHT22;31548;51.420;-0.040;2023-10-13T00:39:28;16.50;99.90
45837;DHT22;31548;51.420;-0.040;2023-10-13T00:41:56;16.50;99.90
45837;DHT22;31548;51.420;-0.040;2023-10-13T00:44:26;16.50;99.90
45837;DHT22;31548;51.420;-0.040;2023-10-13T00:47:05;16.50;99.90
45837;DHT22;31548;51.420;-0.040;2023-10-13T00:49:36;16.50;99.90
45837;DHT22;31548;51.420;-0.040;2023-10-13T00:52:07;16.50;99.90
45837;DHT22;31548;51.420;-0.040;2023-10-13T00:54:38;16.50;99.90
45837;DHT22;31548;51.420;-0.040;2023-10-13T00:57:06;16.50;99.90
45837;DHT22;31548;51.420;-0.040;2023-10-13T00:59:55;16.50;99.90
45837;DHT22;31548;51.420;-0.040;2023-10-13T01:02:23;16.50;99.90
45837;DHT22;31548;51.420;-0.040;2023-10-13T01:05:03;16.60;99.90
45837;DHT22;31548;51.420;-0.040;2023-10-13T01:07:31;16.60;99.90
45837;DHT22;31548;51.420;-0.040;2023-10-13T01:09:58;16.60;99.90
45837;DHT22;31548;51.420;-0.040;2023-10-13T01:12:26;16.60;99.90
45837;DHT22;31548;51.420;-0.040;2023-10-13T01:14:53;16.60;99.90
45837;DHT22;31548;51.420;-0.040;2023-10-13T01:17:22;16.70;99.90
45837;DHT22;31548;51.420;-0.040;2023-10-13T01:19:50;16.70;99.90
45837;DHT22;31548;51.420;-0.040;2023-10-13T01:22:19;16.70;99.90
45837;DHT22;31548;51.420;-0.040;2023-10-13T01:24:48;16.70;99.90
45837;DHT22;31548;51.420;-0.040;2023-10-13T01:27:16;16.80;99.90
45837;DHT22;31548;51.420;-0.040;2023-10-13T01:29:48;16.80;99.90
45837;DHT22;31548;51.420;-0.040;2023-10-13T01:32:21;16.80;99.90
45837;DHT22;31548;51.420;-0.040;2023-10-13T01:34:49;16.80;99.90
45837;DHT22;31548;51.420;-0.040;2023-10-13T01:37:17;16.80;99.90
45837;DHT22;31548;51.420;-0.040;2023-10-13T01:39:46;16.80;99.90
45837;DHT22;31548;51.420;-0.040;2023-10-13T01:42:15;16.90;99.90
45837;DHT22;31548;51.420;-0.040;2023-10-13T01:44:52;16.80;99.90
45837;DHT22;31548;51.420;-0.040;2023-10-13T01:47:25;16.80;99.90
45837;DHT22;31548;51.420;-0.040;2023-10-13T01:49:55;16.80;99.90
45837;DHT22;31548;51.420;-0.040;2023-10-13T01:52:25;16.70;99.90
45837;DHT22;31548;51.420;-0.040;2023-10-13T01:54:54;16.70;99.90
45837;DHT22;31548;51.420;-0.040;2023-10-13T01:57:21;16.70;99.90
45837;DHT22;31548;51.420;-0.040;2023-10-13T01:59:51;16.70;99.90
45837;DHT22;31548;51.420;-0.040;2023-10-13T02:02:18;16.70;99.90
45837;DHT22;31548;51.420;-0.040;2023-10-13T02:05:06;16.60;99.90
45837;DHT22;31548;51.420;-0.040;2023-10-13T02:07:34;16.60;99.90
45837;DHT22;31548;51.420;-0.040;2023-10-13T02:10:02;16.60;99.90
45837;DHT22;31548;51.420;-0.040;2023-10-13T02:12:33;16.60;99.90
45837;DHT22;31548;51.420;-0.040;2023-10-13T02:15:13;16.60;99.90
45837;DHT22;31548;51.420;-0.040;2023-10-13T02:17:50;16.50;99.90
45837;DHT22;31548;51.420;-0.040;2023-10-13T02:20:22;16.50;99.90
45837;DHT22;31548;51.420;-0.040;2023-10-13T02:22:54;16.50;99.90
45837;DHT22;31548;51.420;-0.040;2023-10-13T02:25:21;16.50;99.90
45837;DHT22;31548;51.420;-0.040;2023-10-13T02:28:10;16.50;99.90
45837;DHT22;31548;51.420;-0.040;2023-10-13T02:30:49;16.40;99.90
45837;DHT22;31548;51.420;-0.040;2023-10-13T02:33:17;16.50;99.90
45837;DHT22;31548;51.420;-0.040;2023-10-13T02:35:48;16.50;99.90
45837;DHT22;31548;51.420;-0.040;2023-10-13T02:38:23;16.50;99.90
45837;DHT22;31548;51.420;-0.040;2023-10-13T02:41:15;16.50;99.90
45837;DHT22;31548;51.420;-0.040;2023-10-13T02:43:56;16.50;99.90
45837;DHT22;31548;51.420;-0.040;2023-10-13T02:46:23;16.50;99.90
45837;DHT22;31548;51.420;-0.040;2023-10-13T02:48:56;16.50;99.90
45837;DHT22;31548;51.420;-0.040;2023-10-13T02:51:29;16.50;99.90
45837;DHT22;31548;51.420;-0.040;2023-10-13T02:54:04;16.50;99.90
45837;DHT22;31548;51.420;-0.040;2023-10-13T02:56:52;16.50;99.90
45837;DHT22;31548;51.420;-0.040;2023-10-13T02:59:26;16.50;99.90
45837;DHT22;31548;51.420;-0.040;2023-10-13T03:02:02;16.50;99.90
45837;DHT22;31548;51.420;-0.040;2023-10-13T03:04:47;16.50;99.90
45837;DHT22;31548;51.420;-0.040;2023-10-13T03:07:15;16.50;99.90
45837;DHT22;31548;51.420;-0.040;2023-10-13T03:09:43;16.50;99.90
45837;DHT22;31548;51.420;-0.040;2023-10-13T03:12:19;16.50;99.90
45837;DHT22;31548;51.420;-0.040;2023-10-13T03:14:47;16.50;99.90
45837;DHT22;31548;51.420;-0.040;2023-10-13T03:17:24;16.50;99.90
45837;DHT22;31548;51.420;-0.040;2023-10-13T03:20:01;16.60;99.90
45837;DHT22;31548;51.420;-0.040;2023-10-13T03:22:28;16.60;99.90
45837;DHT22;31548;51.420;-0.040;2023-10-13T03:24:59;16.60;99.90
45837;DHT22;31548;51.420;-0.040;2023-10-13T03:27:40;16.70;99.90
45837;DHT22;31548;51.420;-0.040;2023-10-13T03:30:15;16.70;99.90
45837;DHT22;31548;51.420;-0.040;2023-10-13T03:32:43;16.70;99.90
45837;DHT22;31548;51.420;-0.040;2023-10-13T03:35:13;16.80;99.90
45837;DHT22;31548;51.420;-0.040;2023-10-13T03:37:52;16.80;99.90
45837;DHT22;31548;51.420;-0.040;2023-10-13T03:40:19;16.80;99.90
45837;DHT22;31548;51.420;-0.040;2023-10-13T03:42:53;16.80;99.90
45837;DHT22;31548;51.420;-0.040;2023-10-13T03:45:43;16.90;99.90
45837;DHT22;31548;51.420;-0.040;2023-10-13T03:48:18;16.90;99.90
45837;DHT22;31548;51.420;-0.040;2023-10-13T03:51:01;16.90;99.90
45837;DHT22;31548;51.420;-0.040;2023-10-13T03:53:35;16.90;99.90
45837;DHT22;31548;51.420;-0.040;2023-10-13T03:56:04;17.00;99.90
45837;DHT22;31548;51.420;-0.040;2023-10-13T03:58:59;17.00;99.90
45837;DHT22;31548;51.420;-0.040;2023-10-13T04:01:47;17.00;99.90
45837;DHT22;31548;51.420;-0.040;2023-10-13T04:04:30;17.00;99.90
45837;DHT22;31548;51.420;-0.040;2023-10-13T04:07:26;17.00;99.90
45837;DHT22;31548;51.420;-0.040;2023-10-13T04:09:53;17.00;99.90
45837;DHT22;31548;51.420;-0.040;2023-10-13T04:12:41;17.10;99.90
45837;DHT22;31548;51.420;-0.040;2023-10-13T04:15:26;17.10;99.90
45837;DHT22;31548;51.420;-0.040;2023-10-13T04:18:04;17.10;99.90
45837;DHT22;31548;51.420;-0.040;2023-10-13T04:20:41;17.20;99.90
45837;DHT22;31548;51.420;-0.040;2023-10-13T04:23:13;17.20;99.90
45837;DHT22;31548;51.420;-0.040;2023-10-13T04:25:49;17.20;99.90
45837;DHT22;31548;51.420;-0.040;2023-10-13T04:28:16;17.20;99.90
45837;DHT22;31548;51.420;-0.040;2023-10-13T04:31:05;17.30;99.90
45837;DHT22;31548;51.420;-0.040;2023-10-13T04:33:51;17.30;99.90
45837;DHT22;31548;51.420;-0.040;2023-10-13T04:36:23;17.40;99.90
45837;DHT22;31548;51.420;-0.040;2023-10-13T04:38:56;17.50;99.90
45837;DHT22;31548;51.420;-0.040;2023-10-13T04:41:34;17.50;99.90
45837;DHT22;31548;51.420;-0.040;2023-10-13T04:44:25;17.50;99.90
45837;DHT22;31548;51.420;-0.040;2023-10-13T04:47:07;17.50;99.90
45837;DHT22;31548;51.420;-0.040;2023-10-13T04:49:39;17.60;99.90
45837;DHT22;31548;51.420;-0.040;2023-10-13T04:52:10;17.60;99.90
45837;DHT22;31548;51.420;-0.040;2023-10-13T04:54:45;17.60;99.90
45837;DHT22;31548;51.420;-0.040;2023-10-13T04:57:26;17.70;99.90
45837;DHT22;31548;51.420;-0.040;2023-10-13T05:00:14;17.60;99.90
45837;DHT22;31548;51.420;-0.040;2023-10-13T05:02:46;17.70;99.90
45837;DHT22;31548;51.420;-0.040;2023-10-13T05:05:29;17.70;99.90
45837;DHT22;31548;51.420;-0.040;2023-10-13T05:07:59;17.80;99.90
45837;DHT22;31548;51.420;-0.040;2023-10-13T05:10:45;17.80;99.90
45837;DHT22;31548;51.420;-0.040;2023-10-13T05:13:31;17.80;99.90
45837;DHT22;31548;51.420;-0.040;2023-10-13T05:16:17;17.80;99.90
45837;DHT22;31548;51.420;-0.040;2023-10-13T05:19:03;17.80;99.90
45837;DHT22;31548;51.420;-0.040;2023-10-13T05:21:49;17.80;99.90
45837;DHT22;31548;51.420;-0.040;2023-10-13T05:24:35;17.90;99.90
45837;DHT22;31548;51.420;-0.040;2023-10-13T05:27:21;17.90;99.90
45837;DHT22;31548;51.420;-0.040;2023-10-13T05:30:07;17.90;99.90
45837;DHT22;31548;51.420;-0.040;2023-10-13T05:32:53;17.90;99.90
45837;DHT22;31548;51.420;-0.040;2023-10-13T05:35:39;17.90;99.90
45837;DHT22;31548;51.420;-0.040;2023-10-13T05:38:25;18.00;99.90
45837;DHT22;31548;51.420;-0.040;2023-10-13T05:41:11;18.00;99.90
45837;DHT22;31548;51.420;-0.040;2023-10-13T05:43:56;18.00;99.90
45837;DHT22;31548;51.420;-0.040;2023-10-13T05:46:42;18.00;99.90
45837;DHT22;31548;51.420;-0.040;2023-10-13T05:49:28;18.10;99.90
45837;DHT22;31548;51.420;-0.040;2023-10-13T05:52:17;18.10;99.90
45837;DHT22;31548;51.420;-0.040;2023-10-13T05:55:07;18.10;99.90
45837;DHT22;31548;51.420;-0.040;2023-10-13T05:57:53;18.20;99.90
45837;DHT22;31548;51.420;-0.040;2023-10-13T06:00:41;18.20;99.90
45837;DHT22;31548;51.420;-0.040;2023-10-13T06:03:27;18.20;99.90
45837;DHT22;31548;51.420;-0.040;2023-10-13T06:06:13;18.20;99.90
45837;DHT22;31548;51.420;-0.040;2023-10-13T06:08:59;18.40;99.90
45837;DHT22;31548;51.420;-0.040;2023-10-13T06:11:45;18.40;99.90
45837;DHT22;31548;51.420;-0.040;2023-10-13T06:14:31;18.50;99.90
45837;DHT22;31548;51.420;-0.040;2023-10-13T06:17:27;18.50;99.90
45837;DHT22;31548;51.420;-0.040;2023-10-13T06:20:13;18.60;99.90
45837;DHT22;31548;51.420;-0.040;2023-10-13T06:22:59;18.50;99.90
45837;DHT22;31548;51.420;-0.040;2023-10-13T06:25:52;18.60;99.90
45837;DHT22;31548;51.420;-0.040;2023-10-13T06:28:38;18.60;99.90
45837;DHT22;31548;51.420;-0.040;2023-10-13T06:31:09;18.60;99.90
45837;DHT22;31548;51.420;-0.040;2023-10-13T06:33:49;18.60;99.90
45837;DHT22;31548;51.420;-0.040;2023-10-13T06:36:16;18.70;99.90
45837;DHT22;31548;51.420;-0.040;2023-10-13T06:38:45;18.70;99.90
45837;DHT22;31548;51.420;-0.040;2023-10-13T06:41:22;18.70;99.90
45837;DHT22;31548;51.420;-0.040;2023-10-13T06:44:03;18.80;99.90
45837;DHT22;31548;51.420;-0.040;2023-10-13T06:46:32;18.80;99.90
45837;DHT22;31548;51.420;-0.040;2023-10-13T06:49:02;18.80;99.90
45837;DHT22;31548;51.420;-0.040;2023-10-13T06:51:30;18.70;99.90
45837;DHT22;31548;51.420;-0.040;2023-10-13T06:54:06;18.80;99.90
45837;DHT22;31548;51.420;-0.040;2023-10-13T06:56:37;18.80;99.90
45837;DHT22;31548;51.420;-0.040;2023-10-13T06:59:07;18.80;99.90
45837;DHT22;31548;51.420;-0.040;2023-10-13T07:01:34;18.80;99.90
45837;DHT22;31548;51.420;-0.040;2023-10-13T07:04:09;18.80;99.90
45837;DHT22;31548;51.420;-0.040;2023-10-13T07:06:44;18.70;99.90
45837;DHT22;31548;51.420;-0.040;2023-10-13T07:09:21;18.70;99.90
45837;DHT22;31548;51.420;-0.040;2023-10-13T07:12:04;18.60;99.90
45837;DHT22;31548;51.420;-0.040;2023-10-13T07:14:34;18.60;99.90
45837;DHT22;31548;51.420;-0.040;2023-10-13T07:17:03;18.60;99.90
45837;DHT22;31548;51.420;-0.040;2023-10-13T07:19:32;18.60;99.90
45837;DHT22;31548;51.420;-0.040;2023-10-13T07:22:03;18.60;99.90
45837;DHT22;31548;51.420;-0.040;2023-10-13T07:24:47;18.60;99.90
45837;DHT22;31548;51.420;-0.040;2023-10-13T07:27:19;18.60;99.90
45837;DHT22;31548;51.420;-0.040;2023-10-13T07:29:56;18.60;99.90
45837;DHT22;31548;51.420;-0.040;2023-10-13T07:32:33;18.60;99.90
45837;DHT22;31548;51.420;-0.040;2023-10-13T07:35:01;18.60;99.90
45837;DHT22;31548;51.420;-0.040;2023-10-13T07:37:34;18.70;99.90
45837;DHT22;31548;51.420;-0.040;2023-10-13T07:40:03;18.70;99.90
45837;DHT22;31548;51.420;-0.040;2023-10-13T07:42:48;18.70;99.90
45837;DHT22;31548;51.420;-0.040;2023-10-13T07:45:17;18.70;99.90
45837;DHT22;31548;51.420;-0.040;2023-10-13T07:47:52;18.70;99.90
45837;DHT22;31548;51.420;-0.040;2023-10-13T07:50:20;18.70;99.90
45837;DHT22;31548;51.420;-0.040;2023-10-13T07:52:52;18.70;99.90
45837;DHT22;31548;51.420;-0.040;2023-10-13T07:55:28;18.70;99.90
45837;DHT22;31548;51.420;-0.040;2023-10-13T07:58:00;18.70;99.90
45837;DHT22;31548;51.420;-0.040;2023-10-13T08:00:34;18.70;99.90
45837;DHT22;31548;51.420;-0.040;2023-10-13T08:03:05;18.60;99.90
45837;DHT22;31548;51.420;-0.040;2023-10-13T08:05:37;18.60;99.90
45837;DHT22;31548;51.420;-0.040;2023-10-13T08:08:10;18.50;99.90
45837;DHT22;31548;51.420;-0.040;2023-10-13T08:10:41;18.50;99.90
45837;DHT22;31548;51.420;-0.040;2023-10-13T08:13:12;18.50;99.90
45837;DHT22;31548;51.420;-0.040;2023-10-13T08:15:41;18.50;99.90
45837;DHT22;31548;51.420;-0.040;2023-10-13T08:18:15;18.50;99.90
45837;DHT22;31548;51.420;-0.040;2023-10-13T08:20:58;18.50;99.90
45837;DHT22;31548;51.420;-0.040;2023-10-13T08:23:31;18.50;99.90
45837;DHT22;31548;51.420;-0.040;2023-10-13T08:26:17;18.60;99.90
45837;DHT22;31548;51.420;-0.040;2023-10-13T08:29:03;18.60;99.90
45837;DHT22;31548;51.420;-0.040;2023-10-13T08:31:51;18.60;99.90
45837;DHT22;31548;51.420;-0.040;2023-10-13T08:34:39;18.60;99.90
45837;DHT22;31548;51.420;-0.040;2023-10-13T08:37:13;18.70;99.90
45837;DHT22;31548;51.420;-0.040;2023-10-13T08:39:51;18.60;99.90
45837;DHT22;31548;51.420;-0.040;2023-10-13T08:42:51;18.60;99.90
45837;DHT22;31548;51.420;-0.040;2023-10-13T08:45:31;18.50;99.90
45837;DHT22;31548;51.420;-0.040;2023-10-13T08:48:03;18.50;99.90
45837;DHT22;31548;51.420;-0.040;2023-10-13T08:50:50;18.40;99.90
45837;DHT22;31548;51.420;-0.040;2023-10-13T08:53:30;18.40;99.90
45837;DHT22;31548;51.420;-0.040;2023-10-13T08:58:34;18.40;99.90
45837;DHT22;31548;51.420;-0.040;2023-10-13T09:01:25;18.30;99.90
45837;DHT22;31548;51.420;-0.040;2023-10-13T09:04:06;18.30;99.90
45837;DHT22;31548;51.420;-0.040;2023-10-13T09:06:57;18.20;99.90
45837;DHT22;31548;51.420;-0.040;2023-10-13T09:12:29;18.10;99.90
45837;DHT22;31548;51.420;-0.040;2023-10-13T09:15:01;18.10;99.90
45837;DHT22;31548;51.420;-0.040;2023-10-13T09:17:41;18.00;99.90
45837;DHT22;31548;51.420;-0.040;2023-10-13T09:20:32;18.10;99.90
45837;DHT22;31548;51.420;-0.040;2023-10-13T09:23:13;18.10;99.90
45837;DHT22;31548;51.420;-0.040;2023-10-13T09:25:52;18.00;99.90
45837;DHT22;31548;51.420;-0.040;2023-10-13T09:28:28;18.10;99.90
45837;DHT22;31548;51.420;-0.040;2023-10-13T09:30:56;18.10;99.90
45837;DHT22;31548;51.420;-0.040;2023-10-13T09:33:28;18.10;99.90
45837;DHT22;31548;51.420;-0.040;2023-10-13T09:36:16;18.10;99.90
45837;DHT22;31548;51.420;-0.040;2023-10-13T09:38:44;18.10;99.90
45837;DHT22;31548;51.420;-0.040;2023-10-13T09:41:16;18.10;99.90
45837;DHT22;31548;51.420;-0.040;2023-10-13T09:43:46;18.10;99.90
45837;DHT22;31548;51.420;-0.040;2023-10-13T09:46:19;18.10;99.90
45837;DHT22;31548;51.420;-0.040;2023-10-13T09:48:51;18.10;99.90
45837;DHT22;31548;51.420;-0.040;2023-10-13T09:51:34;18.10;99.90
45837;DHT22;31548;51.420;-0.040;2023-10-13T09:54:09;18.00;99.90
45837;DHT22;31548;51.420;-0.040;2023-10-13T09:56:51;18.10;99.90
45837;DHT22;31548;51.420;-0.040;2023-10-13T09:59:27;18.10;99.90
45837;DHT22;31548;51.420;-0.040;2023-10-13T10:02:05;18.10;99.90
45837;DHT22;31548;51.420;-0.040;2023-10-13T10:04:53;18.10;99.90
45837;DHT22;31548;51.420;-0.040;2023-10-13T10:07:27;18.10;99.90
45837;DHT22;31548;51.420;-0.040;2023-10-13T10:09:57;18.10;99.90
45837;DHT22;31548;51.420;-0.040;2023-10-13T10:17:47;18.20;99.90
45837;DHT22;31548;51.420;-0.040;2023-10-13T10:20:36;18.30;99.90
45837;DHT22;31548;51.420;-0.040;2023-10-13T10:23:10;18.30;99.90
45837;DHT22;31548;51.420;-0.040;2023-10-13T10:25:48;18.30;99.90
45837;DHT22;31548;51.420;-0.040;2023-10-13T10:28:19;18.40;99.90
45837;DHT22;31548;51.420;-0.040;2023-10-13T10:30:47;18.40;99.90
45837;DHT22;31548;51.420;-0.040;2023-10-13T10:33:14;18.40;99.90
45837;DHT22;31548;51.420;-0.040;2023-10-13T10:35:46;18.40;99.90
45837;DHT22;31548;51.420;-0.040;2023-10-13T10:38:18;18.50;99.90
45837;DHT22;31548;51.420;-0.040;2023-10-13T10:40:53;18.50;99.90
45837;DHT22;31548;51.420;-0.040;2023-10-13T10:46:25;18.60;99.90
45837;DHT22;31548;51.420;-0.040;2023-10-13T10:48:57;18.60;99.90
45837;DHT22;31548;51.420;-0.040;2023-10-13T10:51:44;18.60;99.90
45837;DHT22;31548;51.420;-0.040;2023-10-13T10:54:19;18.70;99.90
45837;DHT22;31548;51.420;-0.040;2023-10-13T10:56:47;18.70;99.90
45837;DHT22;31548;51.420;-0.040;2023-10-13T10:59:23;18.70;99.90
45837;DHT22;31548;51.420;-0.040;2023-10-13T11:01:52;18.80;99.90
45837;DHT22;31548;51.420;-0.040;2023-10-13T11:04:20;19.00;99.90
45837;DHT22;31548;51.420;-0.040;2023-10-13T11:06:55;19.10;99.90
45837;DHT22;31548;51.420;-0.040;2023-10-13T11:09:24;19.20;99.90
45837;DHT22;31548;51.420;-0.040;2023-10-13T11:12:14;19.30;99.90
45837;DHT22;31548;51.420;-0.040;2023-10-13T11:15:08;19.40;99.90
45837;DHT22;31548;51.420;-0.040;2023-10-13T11:17:50;19.60;99.90
45837;DHT22;31548;51.420;-0.040;2023-10-13T11:20:26;19.70;99.90
45837;DHT22;31548;51.420;-0.040;2023-10-13T11:22:53;19.80;99.90
45837;DHT22;31548;51.420;-0.040;2023-10-13T11:25:25;19.90;99.90
45837;DHT22;31548;51.420;-0.040;2023-10-13T11:28:12;19.90;99.90
45837;DHT22;31548;51.420;-0.040;2023-10-13T11:30:55;20.00;99.90
45837;DHT22;31548;51.420;-0.040;2023-10-13T11:33:26;20.10;99.90
45837;DHT22;31548;51.420;-0.040;2023-10-13T11:35:58;20.10;99.90
45837;DHT22;31548;51.420;-0.040;2023-10-13T11:38:33;20.20;99.90
45837;DHT22;31548;51.420;-0.040;2023-10-13T11:41:16;20.30;99.90
45837;DHT22;31548;51.420;-0.040;2023-10-13T11:43:50;20.30;99.90
45837;DHT22;31548;51.420;-0.040;2023-10-13T11:46:26;20.30;99.90
45837;DHT22;31548;51.420;-0.040;2023-10-13T11:49:09;20.40;99.90
45837;DHT22;31548;51.420;-0.040;2023-10-13T11:51:50;20.30;99.90
45837;DHT22;31548;51.420;-0.040;2023-10-13T11:54:19;20.30;99.90
45837;DHT22;31548;51.420;-0.040;2023-10-13T11:56:49;20.30;99.90
45837;DHT22;31548;51.420;-0.040;2023-10-13T11:59:16;20.40;99.90
45837;DHT22;31548;51.420;-0.040;2023-10-13T12:01:49;20.30;99.90
45837;DHT22;31548;51.420;-0.040;2023-10-13T12:04:52;20.40;99.90
45837;DHT22;31548;51.420;-0.040;2023-10-13T12:07:22;20.40;99.90
45837;DHT22;31548;51.420;-0.040;2023-10-13T12:09:50;20.30;99.90
45837;DHT22;31548;51.420;-0.040;2023-10-13T12:12:27;20.30;99.90
45837;DHT22;31548;51.420;-0.040;2023-10-13T12:14:55;20.30;99.90
45837;DHT22;31548;51.420;-0.040;2023-10-13T12:17:28;20.30;99.90
45837;DHT22;31548;51.420;-0.040;2023-10-13T12:20:08;20.30;99.90
45837;DHT22;31548;51.420;-0.040;2023-10-13T12:22:45;20.30;99.90
45837;DHT22;31548;51.420;-0.040;2023-10-13T12:25:24;20.20;99.90
45837;DHT22;31548;51.420;-0.040;2023-10-13T12:28:00;20.20;99.90
45837;DHT22;31548;51.420;-0.040;2023-10-13T12:30:55;20.20;99.90
45837;DHT22;31548;51.420;-0.040;2023-10-13T12:33:25;20.20;99.90
45837;DHT22;31548;51.420;-0.040;2023-10-13T12:36:04;20.20;99.90
45837;DHT22;31548;51.420;-0.040;2023-10-13T12:38:36;20.30;99.90
45837;DHT22;31548;51.420;-0.040;2023-10-13T12:41:06;20.40;99.90
45837;DHT22;31548;51.420;-0.040;2023-10-13T12:44:03;20.50;99.90
45837;DHT22;31548;51.420;-0.040;2023-10-13T12:46:50;20.40;99.90
45837;DHT22;31548;51.420;-0.040;2023-10-13T12:49:36;20.30;99.90
45837;DHT22;31548;51.420;-0.040;2023-10-13T12:52:12;20.30;99.90
45837;DHT22;31548;51.420;-0.040;2023-10-13T12:55:18;20.30;99.90
45837;DHT22;31548;51.420;-0.040;2023-10-13T12:58:06;20.10;99.90
45837;DHT22;31548;51.420;-0.040;2023-10-13T13:00:33;20.10;99.90
45837;DHT22;31548;51.420;-0.040;2023-10-13T13:03:01;19.90;99.90
45837;DHT22;31548;51.420;-0.040;2023-10-13T13:05:38;20.00;99.90
45837;DHT22;31548;51.420;-0.040;2023-10-13T13:08:12;19.90;99.90
45837;DHT22;31548;51.420;-0.040;2023-10-13T13:10:46;19.90;99.90
45837;DHT22;31548;51.420;-0.040;2023-10-13T13:13:15;20.00;99.90
45837;DHT22;31548;51.420;-0.040;2023-10-13T13:15:44;20.10;99.90
45837;DHT22;31548;51.420;-0.040;2023-10-13T13:18:13;20.10;99.90
45837;DHT22;31548;51.420;-0.040;2023-10-13T13:20:40;20.20;99.90
45837;DHT22;31548;51.420;-0.040;2023-10-13T13:23:23;20.10;99.90
45837;DHT22;31548;51.420;-0.040;2023-10-13T13:25:54;20.30;99.90
45837;DHT22;31548;51.420;-0.040;2023-10-13T13:28:24;20.30;99.90
45837;DHT22;31548;51.420;-0.040;2023-10-13T13:30:56;20.30;99.90
45837;DHT22;31548;51.420;-0.040;2023-10-13T13:33:23;20.30;99.90
45837;DHT22;31548;51.420;-0.040;2023-10-13T13:35:55;20.50;99.90
45837;DHT22;31548;51.420;-0.040;2023-10-13T13:38:27;20.60;99.90
45837;DHT22;31548;51.420;-0.040;2023-10-13T13:41:00;20.70;99.90
45837;DHT22;31548;51.420;-0.040;2023-10-13T13:43:29;20.90;99.90
45837;DHT22;31548;51.420;-0.040;2023-10-13T13:46:23;21.00;99.90
45837;DHT22;31548;51.420;-0.040;2023-10-13T13:49:00;21.00;99.90
45837;DHT22;31548;51.420;-0.040;2023-10-13T13:51:28;21.00;99.90
45837;DHT22;31548;51.420;-0.040;2023-10-13T13:53:56;21.00;99.90
45837;DHT22;31548;51.420;-0.040;2023-10-13T13:56:25;20.80;99.90
45837;DHT22;31548;51.420;-0.040;2023-10-13T13:58:55;20.80;99.90
45837;DHT22;31548;51.420;-0.040;2023-10-13T14:01:34;20.70;99.90
45837;DHT22;31548;51.420;-0.040;2023-10-13T14:04:05;20.60;99.90
45837;DHT22;31548;51.420;-0.040;2023-10-13T14:06:34;20.60;99.90
45837;DHT22;31548;51.420;-0.040;2023-10-13T14:09:02;20.70;99.90
45837;DHT22;31548;51.420;-0.040;2023-10-13T14:11:32;20.80;99.90
45837;DHT22;31548;51.420;-0.040;2023-10-13T14:14:06;20.70;99.90
45837;DHT22;31548;51.420;-0.040;2023-10-13T14:16:42;20.50;99.90
45837;DHT22;31548;51.420;-0.040;2023-10-13T14:19:14;20.40;99.90
45837;DHT22;31548;51.420;-0.040;2023-10-13T14:21:47;20.30;99.90
45837;DHT22;31548;51.420;-0.040;2023-10-13T14:24:21;20.30;99.90
45837;DHT22;31548;51.420;-0.040;2023-10-13T14:26:56;20.30;99.90
45837;DHT22;31548;51.420;-0.040;2023-10-13T14:29:24;20.30;99.90
45837;DHT22;31548;51.420;-0.040;2023-10-13T14:31:54;20.30;99.90
45837;DHT22;31548;51.420;-0.040;2023-10-13T14:34:21;20.40;99.90
45837;DHT22;31548;51.420;-0.040;2023-10-13T14:36:49;20.40;99.90
45837;DHT22;31548;51.420;-0.040;2023-10-13T14:39:16;20.30;99.90
45837;DHT22;31548;51.420;-0.040;2023-10-13T14:41:45;20.30;99.90
45837;DHT22;31548;51.420;-0.040;2023-10-13T14:44:14;20.50;99.90
45837;DHT22;31548;51.420;-0.040;2023-10-13T14:46:42;20.70;99.90
45837;DHT22;31548;51.420;-0.040;2023-10-13T14:49:09;20.70;99.90
45837;DHT22;31548;51.420;-0.040;2023-10-13T14:51:37;21.10;99.90
45837;DHT22;31548;51.420;-0.040;2023-10-13T14:54:07;21.40;99.90
45837;DHT22;31548;51.420;-0.040;2023-10-13T14:56:34;21.70;99.90
45837;DHT22;31548;51.420;-0.040;2023-10-13T14:59:01;21.70;99.90
45837;DHT22;31548;51.420;-0.040;2023-10-13T15:01:32;21.90;99.90
45837;DHT22;31548;51.420;-0.040;2023-10-13T15:03:59;22.10;99.90
45837;DHT22;31548;51.420;-0.040;2023-10-13T15:06:27;22.20;99.90
45837;DHT22;31548;51.420;-0.040;2023-10-13T15:08:58;22.20;99.90
45837;DHT22;31548;51.420;-0.040;2023-10-13T15:11:27;22.20;99.90
45837;DHT22;31548;51.420;-0.040;2023-10-13T15:14:13;21.90;99.90
45837;DHT22;31548;51.420;-0.040;2023-10-13T15:16:40;21.60;99.90
45837;DHT22;31548;51.420;-0.040;2023-10-13T15:19:10;21.80;99.90
45837;DHT22;31548;51.420;-0.040;2023-10-13T15:21:39;21.90;99.90
45837;DHT22;31548;51.420;-0.040;2023-10-13T15:24:08;22.10;99.90
45837;DHT22;31548;51.420;-0.040;2023-10-13T15:26:44;22.20;99.90
45837;DHT22;31548;51.420;-0.040;2023-10-13T15:29:15;22.20;99.90
45837;DHT22;31548;51.420;-0.040;2023-10-13T15:31:44;22.30;99.90
45837;DHT22;31548;51.420;-0.040;2023-10-13T15:34:32;22.30;99.90
45837;DHT22;31548;51.420;-0.040;2023-10-13T15:37:00;22.50;99.90
45837;DHT22;31548;51.420;-0.040;2023-10-13T15:39:32;22.40;99.90
45837;DHT22;31548;51.420;-0.040;2023-10-13T15:41:59;22.30;99.90
45837;DHT22;31548;51.420;-0.040;2023-10-13T15:44:28;22.10;99.90
45837;DHT22;31548;51.420;-0.040;2023-10-13T15:46:59;21.90;99.90
45837;DHT22;31548;51.420;-0.040;2023-10-13T15:49:49;21.60;99.90
45837;DHT22;31548;51.420;-0.040;2023-10-13T15:52:16;21.60;99.90
45837;DHT22;31548;51.420;-0.040;2023-10-13T15:54:44;21.90;99.90
45837;DHT22;31548;51.420;-0.040;2023-10-13T15:57:11;21.70;99.90
45837;DHT22;31548;51.420;-0.040;2023-10-13T15:59:43;21.90;99.90
45837;DHT22;31548;51.420;-0.040;2023-10-13T16:02:13;22.00;99.90
45837;DHT22;31548;51.420;-0.040;2023-10-13T16:04:44;22.00;99.90
45837;DHT22;31548;51.420;-0.040;2023-10-13T16:07:12;21.70;99.90
45837;DHT22;31548;51.420;-0.040;2023-10-13T16:09:40;21.30;99.90
45837;DHT22;31548;51.420;-0.040;2023-10-13T16:12:07;21.10;99.90
45837;DHT22;31548;51.420;-0.040;2023-10-13T16:14:38;21.00;99.90
45837;DHT22;31548;51.420;-0.040;2023-10-13T16:17:05;21.00;99.90
45837;DHT22;31548;51.420;-0.040;2023-10-13T16:19:36;21.00;99.90